الصفحة الرئيسية
METAR-TAF:

METAR-TAF

مطار :

Window Rock Airport

Window Rock, أريزونا, الولايات المتحدة

دائرة عرض: 35-39N, خط طول: 109-04W, ارتفاع: 2055 متر

مراقبة الطقس الحالي

تاريخ ووقت الإصدار 1ساعة و 8 دقيقة قبل الساعة 20:53UTC
ريح 26 عقدة من الجنوب الغربي تتزايد حتى 35 عقدة
درجة الحرارة 11°درجة مئوية
الرطوبة 40%
ضغط 1017 hPa
الرؤية: 16.1 كم
غيوم متفرقة على ارتفاع 5000 قدم
غيوم متفرقة على ارتفاع 8000 قدم

METAR: KRQE 232053Z AUTO 23026G35KT 10SM SCT050 SCT080 11/M02 A3002 RMK AO2 PK WND 23035/2052 RAB02E28 SLP105 P0000 60001 T01061022 51015

زمن: 15:01 (22:01 UTC)


TAF: مفقودة

أرصاد الطقس والتوقعات من أكثر من 4000 مطار (تقارير الطقس للمطار METAR والتنبؤ بالطقس بالمطارTAF).

المحطات المتاحة هي النقط الصفراء والحمراء على الخريطة.

حرك المؤشر فوق النقطة لمعرفة اسم المحطة.

ثم انقر لمعرفة أرصاد وتوقعات الطقس.

لتغيير الخارطة: اضغط على الأزرار الخضراء مع رمز الصليب الأسود للتكبير. على الزر الأخضر مع شرطة للتصغير، أو على الأسهم الخضراء للخرائط المجاورة.


METAR-TAF: